createdAt,value
2023-03-23T15:59:11.664Z,12.96
2023-03-23T16:01:41.196Z,12.84
2023-03-23T16:04:07.894Z,13.08
2023-03-23T16:06:35.467Z,12.87
2023-03-23T16:09:03.620Z,12.50
2023-03-23T16:11:31.662Z,12.75
2023-03-23T16:13:59.633Z,12.39
2023-03-23T16:16:34.415Z,12.39
2023-03-23T16:19:01.324Z,12.28
2023-03-23T16:21:28.586Z,12.45
2023-03-23T16:23:56.779Z,12.11
2023-03-23T16:26:25.285Z,12.36
2023-03-23T16:29:02.654Z,12.03
2023-03-23T16:31:40.912Z,11.95
2023-03-23T16:34:09.603Z,12.07
2023-03-23T16:36:39.488Z,12.03
2023-03-23T16:39:09.780Z,12.20
2023-03-23T16:41:43.951Z,11.61
2023-03-23T16:44:38.490Z,11.67
2023-03-23T16:47:05.445Z,11.80
2023-03-23T16:49:32.037Z,12.08
2023-03-23T16:52:00.143Z,11.89
2023-03-23T16:57:31.366Z,11.70
2023-03-23T17:00:01.049Z,11.77
2023-03-23T17:02:30.728Z,11.77
2023-03-23T17:08:11.945Z,11.54
2023-03-23T17:13:39.888Z,11.54
2023-03-23T17:16:50.288Z,11.79
2023-03-23T17:19:17.419Z,11.82
2023-03-23T17:21:44.457Z,11.73
2023-03-23T17:24:11.408Z,11.82
2023-03-23T17:26:51.333Z,11.77
2023-03-23T17:32:09.880Z,11.66
2023-03-23T17:34:51.071Z,11.63
2023-03-23T17:37:26.466Z,11.79
2023-03-23T17:39:56.655Z,11.44
2023-03-23T17:43:03.166Z,11.67
2023-03-23T17:45:34.969Z,11.53
2023-03-23T17:48:21.038Z,11.65
2023-03-23T17:51:13.208Z,11.61
2023-03-23T17:53:40.227Z,11.79
2023-03-23T17:56:13.090Z,11.51
2023-03-23T18:01:33.101Z,11.50
2023-03-23T18:04:11.387Z,11.34
2023-03-23T18:07:18.930Z,11.34
2023-03-23T18:10:03.000Z,11.24
2023-03-23T18:12:30.010Z,11.47
2023-03-23T18:15:05.277Z,11.29
2023-03-23T18:17:38.703Z,11.41
2023-03-23T18:20:36.607Z,11.15
2023-03-23T18:23:12.140Z,11.31
2023-03-23T18:25:55.511Z,11.20
2023-03-23T18:29:21.790Z,11.08
2023-03-23T18:34:18.897Z,11.35
2023-03-23T18:37:04.066Z,11.07
2023-03-23T18:39:38.753Z,11.20
2023-03-23T18:42:06.586Z,11.14
2023-03-23T18:44:36.153Z,11.34
2023-03-23T18:47:05.648Z,11.16
2023-03-23T18:49:41.403Z,11.03
2023-03-23T18:52:27.334Z,11.23
2023-03-23T18:54:54.981Z,11.34
2023-03-23T18:57:29.600Z,11.21
2023-03-23T19:03:22.042Z,11.21
2023-03-23T19:06:11.577Z,11.13
2023-03-23T19:08:51.597Z,11.32
2023-03-23T19:11:44.276Z,11.29
2023-03-23T19:15:54.051Z,11.44
2023-03-23T19:18:20.987Z,11.13
2023-03-23T19:25:03.402Z,11.18
2023-03-23T19:29:23.345Z,11.73
2023-03-23T19:31:46.319Z,11.22
2023-03-23T19:35:06.460Z,11.41
2023-03-23T19:39:04.987Z,11.58
2023-03-23T19:42:25.082Z,11.20
2023-03-23T19:44:56.041Z,11.34
2023-03-23T19:47:44.849Z,11.69
2023-03-23T19:52:07.150Z,11.32
2023-03-23T19:54:13.290Z,11.31
2023-03-23T19:57:58.281Z,11.61
2023-03-23T20:08:55.616Z,11.30
2023-03-23T20:12:32.648Z,11.65
2023-03-23T20:14:56.573Z,11.49
2023-03-23T20:17:53.034Z,11.22
2023-03-23T20:20:52.457Z,11.62
2023-03-23T20:23:23.526Z,11.51
2023-03-23T20:26:43.561Z,11.64
2023-03-23T20:37:55.625Z,11.32
2023-03-23T20:40:42.670Z,10.97
2023-03-23T20:43:10.786Z,11.16
2023-03-23T20:45:57.217Z,11.13
2023-03-23T20:48:34.905Z,11.27
2023-03-23T20:51:04.688Z,11.30
2023-03-23T20:53:44.748Z,11.16
2023-03-23T20:56:18.727Z,10.98
2023-03-23T20:58:49.733Z,11.11
2023-03-23T21:01:22.190Z,11.26
2023-03-23T21:03:54.367Z,11.24
2023-03-23T21:06:32.676Z,11.30
2023-03-23T21:09:05.732Z,11.32
2023-03-23T21:11:35.478Z,10.98
2023-03-23T21:14:03.437Z,10.89
2023-03-23T21:16:32.263Z,10.98
2023-03-23T21:19:48.706Z,10.98
2023-03-23T21:22:25.214Z,11.03
2023-03-23T21:24:59.178Z,10.75
2023-03-23T21:27:28.679Z,10.92
2023-03-23T21:30:04.202Z,10.86
2023-03-23T21:35:22.473Z,10.84
2023-03-23T21:37:54.478Z,10.96
2023-03-23T21:40:24.504Z,11.14
2023-03-23T21:42:54.645Z,10.91
2023-03-23T21:45:22.109Z,10.57
2023-03-23T21:48:05.287Z,10.54
2023-03-23T21:50:42.493Z,10.46
2023-03-23T21:53:15.894Z,10.82
2023-03-23T21:55:56.503Z,10.56
2023-03-23T21:58:29.663Z,10.60
2023-03-23T22:01:07.705Z,10.52
2023-03-23T22:03:40.329Z,11.01
2023-03-23T22:06:19.018Z,10.88
2023-03-23T22:09:00.853Z,10.87
2023-03-23T22:11:34.259Z,10.71
2023-03-23T22:14:01.475Z,10.72
2023-03-23T22:16:29.609Z,10.85
2023-03-23T22:19:03.964Z,10.37
2023-03-23T22:21:36.836Z,10.65
2023-03-23T22:24:04.033Z,10.63
2023-03-23T22:26:49.440Z,10.40
2023-03-23T22:29:27.392Z,10.62
2023-03-23T22:31:59.813Z,10.55
2023-03-23T22:34:33.508Z,10.51
2023-03-23T22:37:00.273Z,10.55
2023-03-23T22:39:31.161Z,10.66
2023-03-23T22:42:06.577Z,10.61
2023-03-23T22:44:40.147Z,10.30
2023-03-23T22:47:09.581Z,10.50
2023-03-23T22:49:36.733Z,10.46
2023-03-23T22:52:31.076Z,10.33
2023-03-23T22:55:09.749Z,10.31
2023-03-23T22:57:44.167Z,10.17
2023-03-23T23:08:19.397Z,10.50
2023-03-23T23:10:56.328Z,10.13
2023-03-23T23:13:23.912Z,10.08
2023-03-23T23:15:54.096Z,10.30
2023-03-23T23:18:21.623Z,10.52
2023-03-23T23:20:50.564Z,10.30
2023-03-23T23:23:17.532Z,10.47
2023-03-23T23:25:44.722Z,10.51
2023-03-23T23:28:11.532Z,10.24
2023-03-23T23:30:38.584Z,10.30
2023-03-23T23:33:07.363Z,10.16
2023-03-23T23:35:37.015Z,10.30
2023-03-23T23:38:04.768Z,10.09
2023-03-23T23:40:33.622Z,10.05
2023-03-23T23:43:00.290Z,10.22
2023-03-23T23:45:26.821Z,10.17
2023-03-23T23:47:53.607Z,10.37
2023-03-23T23:50:20.542Z,10.24
2023-03-23T23:52:47.435Z,10.19
2023-03-23T23:55:18.107Z,10.36
2023-03-23T23:57:46.764Z,10.09
